Time;durP1;ratioP1;P1;durP2;ratioP2;P2;SDS_P1;SDS_P2;PMS_P1;PMS_P2;Temp;Humidity;BMP_temperature;BMP_pressure;BME280_temperature;BME280_humidity;BME280_pressure;Samples;Min_cycle;Max_cycle;Signal;HPM_P1;HPM_P2
2021/12/09 00:01:47;;;;;;;10.27;5.18;;;1.10;99.90;;;;;;5031402;28;20059;-40
2021/12/09 00:04:17;;;;;;;12.68;6.20;;;1.10;99.90;;;;;;5049379;28;20344;-40
2021/12/09 00:06:44;;;;;;;12.43;5.95;;;1.10;99.90;;;;;;5061284;28;20146;-40
2021/12/09 00:09:14;;;;;;;13.57;6.60;;;1.20;99.90;;;;;;5047661;28;20045;-40
2021/12/09 00:11:46;;;;;;;13.90;6.10;;;1.20;99.90;;;;;;5047585;28;20275;-40
2021/12/09 00:14:25;;;;;;;13.50;5.95;;;1.20;99.90;;;;;;5033804;28;20120;-40
2021/12/09 00:16:53;;;;;;;14.63;6.53;;;1.20;99.90;;;;;;5048955;28;20458;-40
2021/12/09 00:19:19;;;;;;;15.05;5.28;;;1.20;99.90;;;;;;5047430;28;20045;-40
2021/12/09 00:21:45;;;;;;;14.35;6.30;;;1.20;99.90;;;;;;5049041;28;20452;-40
2021/12/09 00:24:11;;;;;;;11.90;5.32;;;1.30;99.90;;;;;;5047248;28;20139;-40
2021/12/09 00:26:38;;;;;;;11.50;5.55;;;1.20;99.90;;;;;;5030458;28;20719;-40
2021/12/09 00:29:06;;;;;;;10.80;5.55;;;1.20;99.90;;;;;;5030743;28;20052;-40
2021/12/09 00:31:32;;;;;;;10.85;5.60;;;1.20;99.90;;;;;;5058345;28;20441;-40
2021/12/09 00:33:59;;;;;;;11.45;5.85;;;1.20;99.90;;;;;;5044360;28;20474;-40
2021/12/09 00:36:34;;;;;;;11.23;5.93;;;1.20;99.90;;;;;;5053312;28;20045;-40
2021/12/09 00:39:00;;;;;;;14.30;6.47;;;1.10;99.90;;;;;;5051763;28;20052;-40
2021/12/09 00:41:26;;;;;;;11.32;5.60;;;1.10;99.90;;;;;;5053067;28;20037;-40
2021/12/09 00:43:52;;;;;;;16.40;6.57;;;1.00;99.90;;;;;;5051539;28;20056;-40
2021/12/09 00:46:18;;;;;;;11.98;6.28;;;1.00;99.90;;;;;;5025918;28;20541;-39
2021/12/09 00:48:44;;;;;;;13.50;6.10;;;1.00;99.90;;;;;;5041160;28;20103;-40
2021/12/09 00:51:11;;;;;;;11.90;6.60;;;1.00;99.90;;;;;;5034985;28;20052;-40
2021/12/09 00:53:38;;;;;;;15.25;7.25;;;1.00;99.90;;;;;;5051543;28;20049;-40
2021/12/09 00:56:07;;;;;;;12.73;6.65;;;1.00;99.90;;;;;;5084581;28;20063;-40
2021/12/09 00:58:33;;;;;;;10.50;6.38;;;0.90;99.90;;;;;;5051501;28;20386;-40
2021/12/09 01:01:00;;;;;;;11.95;7.25;;;0.90;99.90;;;;;;5051620;28;20045;-39
2021/12/09 01:03:26;;;;;;;16.95;6.55;;;0.90;99.90;;;;;;5057334;28;20109;-40
2021/12/09 01:05:54;;;;;;;12.13;5.70;;;0.80;99.90;;;;;;5057694;28;20051;-40
2021/12/09 01:08:19;;;;;;;13.60;6.20;;;0.80;99.90;;;;;;5056800;28;20429;-40
2021/12/09 01:10:46;;;;;;;11.93;6.80;;;0.80;99.90;;;;;;5051091;28;20045;-40
2021/12/09 01:13:12;;;;;;;12.27;6.88;;;0.70;99.90;;;;;;5051995;28;20053;-39
2021/12/09 01:15:39;;;;;;;11.35;6.22;;;0.70;99.90;;;;;;5056578;28;20041;-40
2021/12/09 01:18:05;;;;;;;13.10;6.55;;;0.70;99.90;;;;;;5050872;28;20431;-40
2021/12/09 01:20:31;;;;;;;15.27;7.22;;;0.60;99.90;;;;;;5094455;28;20040;-40
2021/12/09 01:22:58;;;;;;;16.27;7.10;;;0.60;99.90;;;;;;5055195;28;20511;-40
2021/12/09 01:25:26;;;;;;;15.32;7.88;;;0.60;99.90;;;;;;5052344;28;20041;-40
2021/12/09 01:28:16;;;;;;;13.90;7.70;;;0.70;99.90;;;;;;5033545;28;20049;-39
2021/12/09 01:30:42;;;;;;;14.15;7.78;;;0.50;99.90;;;;;;5051260;28;20299;-40
2021/12/09 01:33:10;;;;;;;14.85;7.38;;;0.70;99.90;;;;;;5050750;28;20583;-39
2021/12/09 01:35:36;;;;;;;14.98;8.00;;;0.70;99.90;;;;;;5084147;28;20048;-40
2021/12/09 01:38:13;;;;;;;15.60;8.18;;;0.80;99.90;;;;;;5050357;28;20048;-39
2021/12/09 01:40:39;;;;;;;14.85;7.78;;;0.70;99.90;;;;;;5069619;28;20041;-40
2021/12/09 01:43:06;;;;;;;15.23;7.60;;;0.80;99.90;;;;;;5055246;28;20077;-40
2021/12/09 01:45:32;;;;;;;20.98;7.97;;;0.70;99.90;;;;;;5050115;28;20036;-40
2021/12/09 01:47:59;;;;;;;18.15;7.95;;;0.70;99.90;;;;;;5050569;28;20064;-40
2021/12/09 01:50:26;;;;;;;15.40;8.25;;;0.60;99.90;;;;;;5065212;28;20079;-40
2021/12/09 01:52:52;;;;;;;16.08;8.50;;;0.70;99.90;;;;;;5051788;28;20033;-40
2021/12/09 01:55:19;;;;;;;16.88;9.27;;;0.70;99.90;;;;;;5049937;28;20384;-40
2021/12/09 01:57:50;;;;;;;21.50;8.52;;;0.70;99.90;;;;;;5051666;28;20102;-39
2021/12/09 02:00:19;;;;;;;16.20;8.32;;;0.60;99.90;;;;;;5065343;28;20071;-40
2021/12/09 02:02:46;;;;;;;15.18;8.25;;;0.60;99.90;;;;;;5062536;28;20083;-40
2021/12/09 02:05:14;;;;;;;14.40;8.68;;;1.20;99.90;;;;;;5051633;28;20048;-40
2021/12/09 02:07:40;;;;;;;16.83;8.50;;;0.60;99.90;;;;;;5044345;28;20118;-40
2021/12/09 02:10:09;;;;;;;19.83;8.55;;;;;;;;;;5051164;28;20040;-39
2021/12/09 02:12:35;;;;;;;18.65;9.05;;;0.60;99.90;;;;;;5060074;28;20040;-40
2021/12/09 02:15:02;;;;;;;15.85;8.63;;;0.50;99.90;;;;;;5063974;28;20044;-40
2021/12/09 02:17:29;;;;;;;17.40;8.30;;;0.50;99.90;;;;;;5060690;28;20513;-40
2021/12/09 02:20:00;;;;;;;14.88;8.32;;;0.50;99.90;;;;;;5051229;28;20396;-39
2021/12/09 02:22:29;;;;;;;17.38;7.97;;;0.50;99.90;;;;;;5049797;28;20045;-40
2021/12/09 02:24:56;;;;;;;14.13;8.43;;;0.50;99.90;;;;;;5029772;28;20102;-39
2021/12/09 02:27:24;;;;;;;16.42;9.65;;;0.40;99.90;;;;;;5049486;28;20094;-40
2021/12/09 02:29:52;;;;;;;17.42;8.55;;;0.40;99.90;;;;;;5051086;28;20051;-43
2021/12/09 02:32:18;;;;;;;15.40;9.07;;;0.40;99.90;;;;;;5032921;28;20175;-40
2021/12/09 02:34:44;;;;;;;19.10;8.55;;;0.40;99.90;;;;;;5068684;28;20216;-39
2021/12/09 02:37:13;;;;;;;17.30;8.20;;;0.40;99.90;;;;;;5058196;28;20176;-40
2021/12/09 02:39:40;;;;;;;19.88;9.52;;;0.30;99.90;;;;;;5049055;28;20144;-40
2021/12/09 02:42:07;;;;;;;18.25;9.55;;;0.30;99.90;;;;;;5061795;28;20090;-40
2021/12/09 02:44:33;;;;;;;18.83;8.85;;;0.30;99.90;;;;;;5101661;28;20133;-40
2021/12/09 02:47:01;;;;;;;16.02;8.95;;;0.30;99.90;;;;;;5070554;28;20486;-40
2021/12/09 02:49:29;;;;;;;18.80;8.98;;;0.20;99.90;;;;;;5054997;28;20185;-40
2021/12/09 02:51:59;;;;;;;17.73;9.77;;;0.30;99.90;;;;;;5070430;28;20411;-40
2021/12/09 02:54:26;;;;;;;20.90;10.27;;;0.30;99.90;;;;;;5049242;28;20052;-40
2021/12/09 02:56:57;;;;;;;17.98;9.02;;;0.20;99.90;;;;;;5063518;28;20063;-40
2021/12/09 02:59:23;;;;;;;20.50;10.50;;;0.30;99.90;;;;;;5057099;28;20482;-39
2021/12/09 03:01:57;;;;;;;20.48;10.68;;;0.30;99.90;;;;;;5070033;28;20129;-39
2021/12/09 03:04:48;;;;;;;17.65;10.43;;;0.30;99.90;;;;;;5051694;28;20055;-39
2021/12/09 03:07:32;;;;;;;17.75;9.77;;;0.30;99.90;;;;;;5069227;28;20041;-39
2021/12/09 03:10:03;;;;;;;20.25;10.40;;;0.30;99.90;;;;;;5056443;28;20045;-39
2021/12/09 03:12:32;;;;;;;20.00;10.52;;;0.30;99.90;;;;;;5060119;28;20215;-39
2021/12/09 03:14:59;;;;;;;21.10;9.85;;;0.30;99.90;;;;;;5082672;28;20840;-39
2021/12/09 03:17:27;;;;;;;19.38;9.40;;;0.30;99.90;;;;;;5048743;28;20500;-40
2021/12/09 03:19:53;;;;;;;27.48;10.65;;;0.30;99.90;;;;;;5048206;28;20045;-40
2021/12/09 03:22:20;;;;;;;21.27;10.57;;;0.30;99.90;;;;;;5049570;28;20037;-40
2021/12/09 03:24:46;;;;;;;18.17;10.10;;;0.30;99.90;;;;;;5048541;28;20182;-40
2021/12/09 03:27:13;;;;;;;18.40;11.25;;;0.30;99.90;;;;;;5049993;28;20045;-39
2021/12/09 03:29:40;;;;;;;18.15;9.68;;;0.30;99.90;;;;;;5049319;28;20044;-40
2021/12/09 03:32:12;;;;;;;19.80;10.02;;;0.30;99.90;;;;;;5049768;28;20399;-39
2021/12/09 03:34:40;;;;;;;24.38;10.90;;;0.20;99.90;;;;;;5049535;28;20109;-40
2021/12/09 03:37:10;;;;;;;19.15;11.05;;;0.20;99.90;;;;;;5047947;28;20036;-40
2021/12/09 03:39:38;;;;;;;21.48;11.05;;;0.20;99.90;;;;;;5031523;28;20053;-39
2021/12/09 03:42:07;;;;;;;18.67;11.07;;;0.20;99.90;;;;;;5050327;28;20048;-40
2021/12/09 03:44:34;;;;;;;21.80;10.13;;;0.20;99.90;;;;;;5064449;28;20044;-40
2021/12/09 03:47:02;;;;;;;21.60;10.45;;;0.20;99.90;;;;;;5049390;28;20351;-40
2021/12/09 03:49:28;;;;;;;16.95;10.13;;;0.20;99.90;;;;;;5047609;28;20033;-40
2021/12/09 03:51:56;;;;;;;18.88;10.07;;;0.20;99.90;;;;;;5047822;28;20175;-40
2021/12/09 03:54:23;;;;;;;25.92;12.27;;;0.20;99.90;;;;;;5049071;28;20136;-40
2021/12/09 03:56:48;;;;;;;25.95;11.13;;;0.10;99.90;;;;;;5064084;28;20052;-40
2021/12/09 03:59:15;;;;;;;23.25;11.20;;;0.20;99.90;;;;;;5048975;28;20170;-39
2021/12/09 04:01:43;;;;;;;21.67;11.60;;;0.10;99.90;;;;;;5047311;28;20044;-40
2021/12/09 04:04:09;;;;;;;17.67;10.38;;;0.10;99.90;;;;;;5047280;28;20052;-39
2021/12/09 04:06:35;;;;;;;20.15;10.98;;;0.10;99.90;;;;;;5047412;28;20049;-39
2021/12/09 04:09:06;;;;;;;18.45;10.73;;;0.10;99.90;;;;;;5049075;28;20123;-39
2021/12/09 04:11:31;;;;;;;22.23;10.90;;;0.10;99.90;;;;;;5030554;28;20092;-40
2021/12/09 04:13:57;;;;;;;24.75;12.38;;;0.10;99.90;;;;;;5048967;28;20483;-40
2021/12/09 04:16:23;;;;;;;23.38;11.77;;;0.10;99.90;;;;;;5063946;28;20133;-39
2021/12/09 04:18:49;;;;;;;21.92;12.32;;;0.10;99.90;;;;;;5047424;28;20108;-40
2021/12/09 04:21:16;;;;;;;19.70;11.40;;;0.10;99.90;;;;;;5047345;28;20141;-40
2021/12/09 04:23:42;;;;;;;24.23;11.23;;;0.20;99.90;;;;;;5049130;28;20052;-40
2021/12/09 04:26:09;;;;;;;17.48;11.43;;;0.10;99.90;;;;;;5048348;28;20048;-40
2021/12/09 04:28:36;;;;;;;21.27;11.63;;;0.10;99.90;;;;;;5056684;28;20048;-40
2021/12/09 04:31:02;;;;;;;20.98;11.30;;;0.10;99.90;;;;;;5064486;28;20033;-40
2021/12/09 04:33:29;;;;;;;20.13;12.07;;;0.10;99.90;;;;;;5039838;28;20059;-40
2021/12/09 04:35:57;;;;;;;26.17;13.18;;;0.10;99.90;;;;;;5050841;28;20124;-40
2021/12/09 04:38:23;;;;;;;23.05;12.25;;;0.10;99.90;;;;;;5047062;28;20072;-40
2021/12/09 04:40:49;;;;;;;23.85;12.55;;;0.10;99.90;;;;;;5046930;28;20492;-40
2021/12/09 04:43:15;;;;;;;19.40;11.70;;;0.00;99.90;;;;;;5046886;28;20045;-39
2021/12/09 04:45:41;;;;;;;25.50;12.35;;;0.10;99.90;;;;;;5030337;28;20061;-40
2021/12/09 04:48:07;;;;;;;20.83;12.10;;;0.10;99.90;;;;;;5046949;28;20060;-40
2021/12/09 04:50:35;;;;;;;21.65;12.55;;;0.00;99.90;;;;;;5047223;28;20045;-40
2021/12/09 04:53:02;;;;;;;25.75;12.95;;;0.00;99.90;;;;;;5064063;28;20133;-40
2021/12/09 04:55:28;;;;;;;20.15;11.82;;;0.00;99.90;;;;;;5048095;28;20053;-40
2021/12/09 04:57:54;;;;;;;28.80;13.27;;;0.00;99.90;;;;;;5048873;28;20095;-40
2021/12/09 05:00:24;;;;;;;25.52;13.00;;;0.00;99.90;;;;;;5030698;28;20044;-40
2021/12/09 05:05:27;;;;;;;21.58;12.57;;;0.00;99.90;;;;;;5049861;28;20443;-40
2021/12/09 05:08:00;;;;;;;24.65;13.63;;;0.00;99.90;;;;;;5055478;28;20103;-40
2021/12/09 05:10:26;;;;;;;25.55;13.18;;;-0.10;99.90;;;;;;5060494;28;20045;-40
2021/12/09 05:12:52;;;;;;;24.05;13.55;;;-0.10;99.90;;;;;;5047287;28;20056;-40
2021/12/09 05:15:18;;;;;;;28.58;13.52;;;-0.10;99.90;;;;;;5053641;28;20041;-40
2021/12/09 05:17:44;;;;;;;27.17;13.70;;;-0.10;99.90;;;;;;5060648;28;20051;-40
2021/12/09 05:20:10;;;;;;;27.85;14.65;;;-0.10;99.90;;;;;;5052452;28;20084;-40
2021/12/09 05:22:36;;;;;;;27.42;14.55;;;-0.10;99.90;;;;;;5034239;28;20076;-40
2021/12/09 05:25:03;;;;;;;24.70;14.10;;;-0.10;99.90;;;;;;5051985;28;20501;-40
2021/12/09 05:27:30;;;;;;;28.98;13.40;;;0.00;99.90;;;;;;5052143;28;20056;-40
2021/12/09 05:30:04;;;;;;;26.88;13.98;;;0.00;99.90;;;;;;5052022;28;20044;-39
2021/12/09 05:32:32;;;;;;;31.92;14.20;;;0.00;99.90;;;;;;5067201;28;20041;-39
2021/12/09 05:34:58;;;;;;;23.30;13.40;;;0.00;99.90;;;;;;5033732;28;20037;-39
2021/12/09 05:37:26;;;;;;;25.40;13.95;;;0.00;99.90;;;;;;5050360;28;20059;-40
2021/12/09 05:39:55;;;;;;;26.88;13.20;;;0.00;99.90;;;;;;5051529;28;20593;-40
2021/12/09 05:42:23;;;;;;;33.30;13.90;;;0.00;99.90;;;;;;5067097;28;20052;-40
2021/12/09 05:44:49;;;;;;;;;;;0.10;99.90;;;;;;5060734;28;20036;-39
2021/12/09 05:47:15;;;;;;;27.75;14.50;;;0.10;99.90;;;;;;5071699;28;20318;-40
2021/12/09 05:49:45;;;;;;;27.37;13.90;;;0.10;99.90;;;;;;5062741;28;20134;-40
2021/12/09 05:52:11;;;;;;;24.13;13.23;;;0.10;99.90;;;;;;5050096;28;20284;-40
2021/12/09 05:54:37;;;;;;;27.67;15.03;;;0.10;99.90;;;;;;5050356;28;20044;-39
2021/12/09 05:57:04;;;;;;;28.08;13.93;;;0.10;99.90;;;;;;5050093;28;20288;-40
2021/12/09 05:59:30;;;;;;;30.60;13.83;;;0.10;99.90;;;;;;5050530;28;20069;-40
2021/12/09 06:01:57;;;;;;;26.45;13.68;;;0.10;99.90;;;;;;5063241;28;20610;-40
2021/12/09 06:04:23;;;;;;;28.20;13.38;;;0.10;99.90;;;;;;5050257;28;20514;-40
2021/12/09 06:06:51;;;;;;;25.00;14.20;;;0.10;99.90;;;;;;5044188;28;20052;-40
2021/12/09 06:09:18;;;;;;;26.02;13.65;;;0.00;99.90;;;;;;5049984;28;20049;-40
2021/12/09 06:11:46;;;;;;;25.20;12.95;;;0.00;99.90;;;;;;5051147;28;20119;-39
2021/12/09 06:14:14;;;;;;;26.25;13.73;;;0.00;99.90;;;;;;5034729;28;20066;-40
2021/12/09 06:16:40;;;;;;;26.05;13.68;;;0.00;99.90;;;;;;5064289;28;20060;-39
2021/12/09 06:19:06;;;;;;;23.45;14.57;;;0.00;99.90;;;;;;5071175;28;20111;-40
2021/12/09 06:21:32;;;;;;;27.38;13.65;;;-0.10;99.90;;;;;;5054561;28;20048;-40
2021/12/09 06:23:59;;;;;;;25.52;13.40;;;-0.10;99.90;;;;;;5049668;28;20045;-40
2021/12/09 06:26:27;;;;;;;26.25;13.68;;;-0.10;99.90;;;;;;5033250;28;20041;-40
2021/12/09 06:28:53;;;;;;;24.85;13.55;;;-0.10;99.90;;;;;;5077700;28;20550;-40
2021/12/09 06:31:20;;;;;;;23.55;13.23;;;-0.10;99.90;;;;;;5052453;28;20048;-40
2021/12/09 06:33:47;;;;;;;29.85;15.05;;;-0.20;99.90;;;;;;5062471;28;20565;-40
2021/12/09 06:36:13;;;;;;;28.15;13.73;;;-0.10;99.90;;;;;;5051325;28;20091;-40
2021/12/09 06:38:39;;;;;;;26.95;14.10;;;-0.10;99.90;;;;;;5049464;28;20048;-40
2021/12/09 06:41:08;;;;;;;25.48;13.38;;;-0.10;99.90;;;;;;5048898;28;20116;-40
2021/12/09 06:43:38;;;;;;;28.50;13.57;;;-0.20;99.90;;;;;;5065154;28;20049;-40
2021/12/09 06:46:06;;;;;;;25.42;14.00;;;-0.20;99.90;;;;;;5032278;28;20399;-40
2021/12/09 06:48:33;;;;;;;26.38;13.18;;;-0.20;99.90;;;;;;5048747;28;20055;-40
2021/12/09 06:51:01;;;;;;;26.92;14.27;;;-0.20;99.90;;;;;;5051017;28;20055;-40
2021/12/09 06:53:29;;;;;;;31.00;13.73;;;-0.20;99.90;;;;;;5050730;28;20052;-41
2021/12/09 06:55:55;;;;;;;28.85;14.32;;;-0.20;99.90;;;;;;5065691;28;20049;-40
2021/12/09 06:58:22;;;;;;;28.60;14.43;;;-0.20;99.90;;;;;;5050434;28;20092;-40
2021/12/09 07:00:49;;;;;;;24.17;13.40;;;-0.20;99.90;;;;;;5048889;28;20045;-41
2021/12/09 07:03:16;;;;;;;28.17;14.25;;;-0.20;99.90;;;;;;5051026;28;20090;-40
2021/12/09 07:05:44;;;;;;;;;;;-0.20;99.90;;;;;;5054090;28;20053;-40
2021/12/09 07:08:11;;;;;;;30.60;14.80;;;-0.20;99.90;;;;;;5055952;28;19928;-40
2021/12/09 07:10:37;;;;;;;25.65;13.30;;;-0.20;99.90;;;;;;5050395;28;20105;-40
2021/12/09 07:13:05;;;;;;;33.25;15.43;;;-0.20;99.90;;;;;;5048707;28;20120;-40
2021/12/09 07:15:31;;;;;;;35.55;15.93;;;-0.20;99.90;;;;;;5041551;28;20509;-40
2021/12/09 07:17:57;;;;;;;33.88;14.68;;;-0.20;99.90;;;;;;5062937;28;20036;-40
2021/12/09 07:20:24;;;;;;;28.55;14.23;;;-0.20;99.90;;;;;;5068816;28;20658;-40
2021/12/09 07:22:51;;;;;;;38.90;15.65;;;-0.20;99.90;;;;;;5037658;28;20060;-40
2021/12/09 07:25:19;;;;;;;31.52;15.63;;;-0.20;99.90;;;;;;5050324;28;20084;-39
2021/12/09 07:27:47;;;;;;;27.33;14.38;;;-0.20;99.90;;;;;;5048587;28;20118;-40
2021/12/09 07:30:15;;;;;;;28.50;14.90;;;-0.20;99.90;;;;;;5049709;28;20574;-40
2021/12/09 07:32:42;;;;;;;32.13;15.35;;;-0.20;99.90;;;;;;5053192;28;20084;-40
2021/12/09 07:35:10;;;;;;;33.28;14.32;;;-0.10;99.90;;;;;;5048535;28;20041;-40
2021/12/09 07:37:38;;;;;;;32.80;14.45;;;-0.10;99.90;;;;;;5082176;28;20527;-40
2021/12/09 07:40:04;;;;;;;;;;;-0.10;99.90;;;;;;5059073;28;20036;-40
2021/12/09 07:42:30;;;;;;;31.23;15.35;;;-0.10;99.90;;;;;;5065716;28;19927;-40
2021/12/09 07:44:56;;;;;;;36.33;15.48;;;-0.10;99.90;;;;;;5044800;28;20064;-40
2021/12/09 07:47:22;;;;;;;29.95;14.35;;;-0.10;99.90;;;;;;5076916;28;20036;-40
2021/12/09 07:49:48;;;;;;;28.60;15.43;;;-0.10;99.90;;;;;;5046855;28;20421;-40
2021/12/09 07:52:14;;;;;;;30.70;15.27;;;-0.10;99.90;;;;;;5064619;28;20045;-40
2021/12/09 07:54:40;;;;;;;26.00;13.70;;;-0.10;99.90;;;;;;5066552;28;20040;-40
2021/12/09 07:57:06;;;;;;;29.73;14.25;;;-0.10;99.90;;;;;;5064885;28;20448;-40
2021/12/09 07:59:32;;;;;;;34.72;14.68;;;-0.10;99.90;;;;;;5067228;28;20135;-46
2021/12/09 08:01:58;;;;;;;34.45;14.48;;;-0.10;99.90;;;;;;5064846;28;20120;-45
2021/12/09 08:04:24;;;;;;;34.72;16.15;;;-0.10;99.90;;;;;;5068854;28;20675;-45
2021/12/09 08:06:53;;;;;;;29.17;14.20;;;-0.10;99.90;;;;;;5065571;28;20040;-45
2021/12/09 08:09:19;;;;;;;26.15;14.48;;;-0.10;99.90;;;;;;5067840;28;20097;-45
2021/12/09 08:11:45;;;;;;;25.45;14.40;;;0.00;99.90;;;;;;5043525;28;20128;-45
2021/12/09 08:14:11;;;;;;;31.17;14.20;;;0.00;99.90;;;;;;5057880;28;20052;-44
2021/12/09 08:16:39;;;;;;;31.05;15.55;;;0.00;99.90;;;;;;5071270;28;20044;-44
2021/12/09 08:19:14;;;;;;;30.65;15.02;;;0.00;99.90;;;;;;5058050;28;20045;-44
2021/12/09 08:21:41;;;;;;;35.25;15.30;;;0.10;99.90;;;;;;5050801;28;20422;-45
2021/12/09 08:24:10;;;;;;;32.20;13.90;;;0.10;99.90;;;;;;5043099;28;20075;-45
2021/12/09 08:26:37;;;;;;;29.42;15.15;;;0.20;99.90;;;;;;5064906;28;20037;-46
2021/12/09 08:29:05;;;;;;;36.65;15.20;;;0.20;99.90;;;;;;5056532;28;20051;-45
2021/12/09 08:31:33;;;;;;;39.15;16.35;;;0.20;99.90;;;;;;5066887;28;20048;-44
2021/12/09 08:34:01;;;;;;;37.33;15.73;;;0.20;99.90;;;;;;5068311;28;20054;-45
2021/12/09 08:36:27;;;;;;;28.85;14.55;;;0.20;99.90;;;;;;5066213;28;20561;-45
2021/12/09 08:38:53;;;;;;;30.10;13.90;;;0.50;99.90;;;;;;5065139;28;20040;-44
2021/12/09 08:41:19;;;;;;;33.10;14.95;;;0.30;99.90;;;;;;5056003;28;20090;-45
2021/12/09 08:43:49;;;;;;;28.95;14.73;;;0.40;99.90;;;;;;5036072;28;20121;-45
2021/12/09 08:46:17;;;;;;;31.70;14.65;;;0.40;99.90;;;;;;5048881;28;20663;-45
2021/12/09 08:48:44;;;;;;;;;;;0.50;99.90;;;;;;5030824;28;20044;-47
2021/12/09 08:51:10;;;;;;;30.60;14.13;;;0.50;99.90;;;;;;5081393;28;19923;-45
2021/12/09 08:53:36;;;;;;;30.60;14.48;;;0.50;99.90;;;;;;5064807;28;20037;-45
2021/12/09 08:56:02;;;;;;;28.88;13.98;;;0.60;99.90;;;;;;5049335;28;20491;-45
2021/12/09 08:58:29;;;;;;;29.05;15.23;;;0.60;99.90;;;;;;5056266;28;20040;-48
2021/12/09 09:00:57;;;;;;;28.65;13.43;;;0.60;99.90;;;;;;5067355;28;20041;-47
2021/12/09 09:03:24;;;;;;;25.88;13.88;;;0.70;99.90;;;;;;5062379;28;20524;-45
2021/12/09 09:05:50;;;;;;;25.67;13.30;;;0.80;99.90;;;;;;5056479;28;20049;-45
2021/12/09 09:08:17;;;;;;;23.63;12.67;;;0.80;99.90;;;;;;5063537;28;20037;-46
2021/12/09 09:10:44;;;;;;;28.97;13.53;;;0.80;99.90;;;;;;5065371;28;20275;-45
2021/12/09 09:13:12;;;;;;;28.95;13.90;;;0.90;99.90;;;;;;5036225;28;20059;-46
2021/12/09 09:15:39;;;;;;;23.58;12.05;;;0.90;99.90;;;;;;5058954;28;20037;-46
2021/12/09 09:18:06;;;;;;;22.30;12.65;;;1.00;99.90;;;;;;5059997;28;20076;-46
2021/12/09 09:20:38;;;;;;;32.63;13.25;;;1.00;99.90;;;;;;5062078;28;20039;-46
2021/12/09 09:23:09;;;;;;;20.88;12.43;;;1.10;99.90;;;;;;5068888;28;20064;-47
2021/12/09 09:25:35;;;;;;;22.15;11.68;;;1.10;99.90;;;;;;5064307;28;20075;-47
2021/12/09 09:28:01;;;;;;;22.15;11.75;;;1.20;99.90;;;;;;5054750;28;20362;-46
2021/12/09 09:30:37;;;;;;;24.90;12.07;;;1.20;99.90;;;;;;5034238;28;20041;-46
2021/12/09 09:33:14;;;;;;;24.15;11.98;;;1.30;99.90;;;;;;5050575;28;20041;-46
2021/12/09 09:35:41;;;;;;;22.35;10.82;;;1.30;99.90;;;;;;5047336;28;20047;-47
2021/12/09 09:38:08;;;;;;;24.35;12.20;;;1.40;99.90;;;;;;5052220;28;20167;-49
2021/12/09 09:40:49;;;;;;;20.35;11.50;;;1.40;99.90;;;;;;5052281;28;20041;-48
2021/12/09 09:43:32;;;;;;;25.38;10.80;;;1.40;99.90;;;;;;5060337;28;20441;-47
2021/12/09 09:46:05;;;;;;;21.23;10.73;;;1.50;99.90;;;;;;5052014;28;20128;-47
2021/12/09 09:48:32;;;;;;;20.20;11.05;;;1.60;99.90;;;;;;5050514;28;20060;-47
2021/12/09 09:50:59;;;;;;;17.83;10.63;;;1.60;99.90;;;;;;5051312;28;20052;-47
2021/12/09 09:53:25;;;;;;;19.05;10.32;;;1.60;99.90;;;;;;5051180;28;20049;-48
2021/12/09 09:55:51;;;;;;;21.48;10.43;;;1.70;99.90;;;;;;5050829;28;20439;-46
2021/12/09 09:58:18;;;;;;;19.15;10.73;;;1.80;99.90;;;;;;5066326;28;20394;-46
2021/12/09 10:00:44;;;;;;;18.40;9.68;;;1.80;99.90;;;;;;5039615;28;20127;-47
2021/12/09 10:03:16;;;;;;;20.00;9.00;;;1.90;99.90;;;;;;5056969;28;20487;-46
2021/12/09 10:05:44;;;;;;;19.70;10.00;;;2.00;99.90;;;;;;5053108;28;20448;-47
2021/12/09 10:08:15;;;;;;;18.60;10.00;;;2.00;99.90;;;;;;5055291;28;20043;-46
2021/12/09 10:10:43;;;;;;;25.63;9.93;;;2.10;99.90;;;;;;5069639;28;20213;-46
2021/12/09 10:13:10;;;;;;;20.77;9.25;;;2.20;99.90;;;;;;5052369;28;20044;-46
2021/12/09 10:15:47;;;;;;;;;;;2.20;99.90;;;;;;5060151;28;20506;-46
2021/12/09 10:18:31;;;;;;;17.65;8.55;;;2.30;99.90;;;;;;5062816;28;19986;-45
2021/12/09 10:20:57;;;;;;;17.52;9.35;;;;;;;;;;5050946;28;20052;-47
2021/12/09 10:23:27;;;;;;;16.25;9.38;;;2.50;99.90;;;;;;5051092;28;20094;-46
2021/12/09 10:26:24;;;;;;;17.63;9.60;;;2.50;99.90;;;;;;5049851;28;20470;-46
2021/12/09 10:29:10;;;;;;;19.65;9.30;;;2.60;99.90;;;;;;5065599;28;20044;-46
2021/12/09 10:31:39;;;;;;;20.27;8.90;;;2.60;99.90;;;;;;5036972;28;20436;-47
2021/12/09 10:34:41;;;;;;;16.58;8.90;;;2.70;99.90;;;;;;5050577;28;20071;-45
2021/12/09 10:37:09;;;;;;;15.20;8.10;;;2.70;99.90;;;;;;5067350;28;20048;-45
2021/12/09 10:39:52;;;;;;;14.55;8.13;;;2.80;99.90;;;;;;5070010;28;20522;-46
2021/12/09 10:42:29;;;;;;;17.60;8.65;;;2.90;99.90;;;;;;5055751;28;20037;-47
2021/12/09 10:45:05;;;;;;;17.60;8.38;;;2.90;99.90;;;;;;5069987;28;20028;-46
2021/12/09 10:50:34;;;;;;;19.48;7.88;;;3.00;99.90;;;;;;5070134;28;20044;-46
2021/12/09 10:55:54;;;;;;;18.02;7.40;;;3.20;99.90;;;;;;5069190;28;20051;-47
2021/12/09 10:58:32;;;;;;;17.20;8.00;;;3.20;99.90;;;;;;5057212;28;20084;-46
2021/12/09 11:01:00;;;;;;;15.75;7.93;;;3.20;99.90;;;;;;5066801;28;20044;-46
2021/12/09 11:03:37;;;;;;;16.90;7.78;;;3.30;99.90;;;;;;5043024;28;20123;-46
2021/12/09 11:06:07;;;;;;;17.85;7.47;;;3.30;99.90;;;;;;5069206;28;20040;-46
2021/12/09 11:08:49;;;;;;;15.55;7.88;;;3.30;99.90;;;;;;5067437;28;20094;-46
2021/12/09 11:11:33;;;;;;;13.50;7.18;;;3.30;99.90;;;;;;5056635;28;20083;-46
2021/12/09 11:14:13;;;;;;;17.55;8.05;;;3.30;99.90;;;;;;5067126;28;20087;-46
2021/12/09 11:16:44;;;;;;;14.40;7.72;;;3.30;99.90;;;;;;5062785;28;20052;-46
2021/12/09 11:19:24;;;;;;;15.05;7.57;;;3.30;99.90;;;;;;5047832;28;20045;-46
2021/12/09 11:21:58;;;;;;;16.67;8.50;;;3.30;99.90;;;;;;5048103;28;20071;-46
2021/12/09 11:24:35;;;;;;;18.17;8.82;;;3.20;99.90;;;;;;5049443;28;20052;-46
2021/12/09 11:27:04;;;;;;;15.85;8.55;;;3.20;99.90;;;;;;5040781;28;20071;-46
2021/12/09 11:29:33;;;;;;;20.30;10.00;;;3.20;99.90;;;;;;5051431;28;20045;-46
2021/12/09 11:32:20;;;;;;;16.67;7.90;;;3.20;99.90;;;;;;5047611;28;20490;-46
2021/12/09 11:35:14;;;;;;;18.63;9.38;;;3.10;99.90;;;;;;5054698;28;20041;-45
2021/12/09 11:40:18;;;;;;;18.85;9.32;;;3.10;99.90;;;;;;5057474;28;20047;-46
2021/12/09 11:42:49;;;;;;;17.23;9.30;;;3.10;99.90;;;;;;5047455;28;20080;-45
2021/12/09 11:45:18;;;;;;;21.55;9.35;;;3.00;99.90;;;;;;5065651;28;20048;-46
2021/12/09 11:47:46;;;;;;;17.60;9.63;;;3.00;99.90;;;;;;5058993;28;20047;-46
2021/12/09 11:50:19;;;;;;;15.43;9.02;;;3.00;99.90;;;;;;5030194;28;20067;-45
2021/12/09 11:52:45;;;;;;;17.10;9.55;;;3.00;99.90;;;;;;5063166;28;20045;-45
2021/12/09 11:55:17;;;;;;;19.58;8.88;;;3.00;99.90;;;;;;5067119;28;20044;-46
2021/12/09 11:57:49;;;;;;;18.60;8.38;;;2.90;99.90;;;;;;5048628;28;20122;-46
2021/12/09 12:12:20;;;;;;;21.77;9.32;;;2.90;99.90;;;;;;5048231;28;20049;-46
2021/12/09 12:14:48;;;;;;;20.60;9.10;;;2.80;99.90;;;;;;5051868;28;20048;-46
2021/12/09 12:17:28;;;;;;;17.17;9.63;;;2.80;99.90;;;;;;5047937;28;20194;-45
2021/12/09 12:23:06;;;;;;;23.27;9.95;;;2.80;99.90;;;;;;5065700;28;20045;-46
2021/12/09 12:42:19;;;;;;;22.20;11.32;;;2.80;99.90;;;;;;5094365;28;20045;-46
2021/12/09 12:45:24;;;;;;;23.77;10.07;;;2.80;99.90;;;;;;5057194;28;20048;-46
2021/12/09 12:47:58;;;;;;;24.13;10.32;;;2.80;99.90;;;;;;5059112;28;20073;-45
2021/12/09 12:50:24;;;;;;;25.05;10.88;;;2.80;99.90;;;;;;5061257;28;20202;-45
2021/12/09 12:52:53;;;;;;;23.77;10.18;;;2.80;99.90;;;;;;5059094;28;20040;-47
2021/12/09 12:55:25;;;;;;;19.30;10.20;;;2.80;99.90;;;;;;5062717;28;20048;-46
2021/12/09 12:57:53;;;;;;;21.20;10.38;;;2.90;99.90;;;;;;5068971;28;20052;-47
2021/12/09 13:00:32;;;;;;;19.08;9.55;;;2.80;99.90;;;;;;5066038;28;20052;-46
2021/12/09 13:03:19;;;;;;;20.80;10.65;;;2.90;99.90;;;;;;5059093;28;20044;-46
2021/12/09 13:06:05;;;;;;;19.85;10.13;;;2.90;99.90;;;;;;5083568;28;20062;-47
2021/12/09 13:11:41;;;;;;;20.48;10.13;;;2.90;99.90;;;;;;5068762;28;20128;-46
2021/12/09 13:14:17;;;;;;;18.00;9.38;;;2.90;99.90;;;;;;5066977;28;20040;-50
2021/12/09 13:17:27;;;;;;;19.15;9.25;;;2.90;99.90;;;;;;5063423;28;20184;-46
2021/12/09 13:20:04;;;;;;;15.57;9.45;;;2.90;99.90;;;;;;5047385;28;20468;-46
2021/12/09 13:22:37;;;;;;;21.37;9.90;;;2.90;99.90;;;;;;5049160;28;20419;-48
2021/12/09 13:25:20;;;;;;;24.63;10.02;;;3.00;99.90;;;;;;5043827;28;20284;-47
2021/12/09 13:33:18;;;;;;;20.25;10.38;;;3.00;99.90;;;;;;5048803;28;20136;-46
2021/12/09 13:47:50;;;;;;;23.50;11.07;;;3.00;99.90;;;;;;5065765;28;20052;-49
2021/12/09 13:55:19;;;;;;;20.10;9.82;;;3.00;99.90;;;;;;5051850;28;20045;-47
2021/12/09 13:57:57;;;;;;;19.75;10.85;;;3.00;99.90;;;;;;5058911;28;20121;-47
2021/12/09 14:00:27;;;;;;;17.08;9.90;;;3.00;99.90;;;;;;5063502;28;20102;-46